createdAt,value
2019-01-24T00:00:51.101Z,33.90
2019-01-24T00:02:56.669Z,33.15
2019-01-24T00:05:02.410Z,31.00
2019-01-24T00:07:08.019Z,33.20
2019-01-24T00:09:13.794Z,32.13
2019-01-24T00:11:19.314Z,35.43
2019-01-24T00:13:24.918Z,35.98
2019-01-24T00:15:31.278Z,31.93
2019-01-24T00:17:36.813Z,35.55
2019-01-24T00:19:42.475Z,34.95
2019-01-24T00:21:48.830Z,32.20
2019-01-24T00:23:55.037Z,32.85
2019-01-24T00:26:00.557Z,30.27
2019-01-24T00:28:08.202Z,32.58
2019-01-24T00:30:14.554Z,28.75
2019-01-24T00:32:20.136Z,31.73
2019-01-24T00:34:26.041Z,29.42
2019-01-24T00:36:31.973Z,30.23
2019-01-24T00:38:37.458Z,30.82
2019-01-24T00:40:42.941Z,31.33
2019-01-24T00:42:48.501Z,30.80
2019-01-24T00:44:54.287Z,30.77
2019-01-24T00:46:59.918Z,29.60
2019-01-24T00:49:05.532Z,29.32
2019-01-24T00:51:11.601Z,32.10
2019-01-24T00:53:17.481Z,31.35
2019-01-24T00:55:23.148Z,30.10
2019-01-24T00:57:28.605Z,31.75
2019-01-24T00:59:43.419Z,29.30
2019-01-24T01:01:51.566Z,28.65
2019-01-24T01:03:57.324Z,29.72
2019-01-24T01:06:04.106Z,28.23
2019-01-24T01:08:09.613Z,31.20
2019-01-24T01:10:15.763Z,28.40
2019-01-24T01:12:21.587Z,27.90
2019-01-24T01:14:27.897Z,31.30
2019-01-24T01:16:33.629Z,29.85
2019-01-24T01:18:39.646Z,29.87
2019-01-24T01:20:45.121Z,28.20
2019-01-24T01:22:51.182Z,30.40
2019-01-24T01:24:58.441Z,28.15
2019-01-24T01:27:04.110Z,32.28
2019-01-24T01:29:09.758Z,31.48
2019-01-24T01:31:16.327Z,33.78
2019-01-24T01:33:22.637Z,33.28
2019-01-24T01:35:28.156Z,32.63
2019-01-24T01:37:33.681Z,30.50
2019-01-24T01:39:39.223Z,31.45
2019-01-24T01:41:45.510Z,36.00
2019-01-24T01:43:51.096Z,34.15
2019-01-24T01:45:57.727Z,31.97
2019-01-24T01:48:03.553Z,32.48
2019-01-24T01:50:11.330Z,32.55
2019-01-24T01:52:16.901Z,34.58
2019-01-24T01:54:22.337Z,33.53
2019-01-24T01:56:29.020Z,32.45
2019-01-24T01:58:34.665Z,32.45
2019-01-24T02:00:40.296Z,31.93
2019-01-24T02:02:46.524Z,34.50
2019-01-24T02:04:51.967Z,31.15
2019-01-24T02:06:58.165Z,33.38
2019-01-24T02:09:07.392Z,36.38
2019-01-24T02:11:12.890Z,32.83
2019-01-24T02:13:18.582Z,32.17
2019-01-24T02:15:31.181Z,31.77
2019-01-24T02:17:37.223Z,33.02
2019-01-24T02:19:42.753Z,31.12
2019-01-24T02:21:48.841Z,31.40
2019-01-24T02:23:54.338Z,32.28
2019-01-24T02:25:59.811Z,32.17
2019-01-24T02:28:06.681Z,33.63
2019-01-24T02:30:18.444Z,33.15
2019-01-24T02:32:24.322Z,32.73
2019-01-24T02:34:29.758Z,32.45
2019-01-24T02:36:35.766Z,33.02
2019-01-24T02:38:42.489Z,28.65
2019-01-24T02:40:48.034Z,30.95
2019-01-24T02:42:53.505Z,33.20
2019-01-24T02:45:08.509Z,30.35
2019-01-24T02:47:14.022Z,30.32
2019-01-24T02:49:19.546Z,29.00
2019-01-24T02:51:27.438Z,31.73
2019-01-24T02:53:32.902Z,29.87
2019-01-24T02:55:38.882Z,32.17
2019-01-24T02:57:44.805Z,31.77
2019-01-24T02:59:50.263Z,30.37
2019-01-24T03:01:55.850Z,30.17
2019-01-24T03:04:01.338Z,33.35
2019-01-24T03:06:06.774Z,31.15
2019-01-24T03:08:12.266Z,31.10
2019-01-24T03:10:17.844Z,29.75
2019-01-24T03:12:24.266Z,30.88
2019-01-24T03:14:30.099Z,30.35
2019-01-24T03:16:35.820Z,31.62
2019-01-24T03:18:41.305Z,33.60
2019-01-24T03:20:46.944Z,29.20
2019-01-24T03:22:52.418Z,31.10
2019-01-24T03:24:57.997Z,30.32
2019-01-24T03:27:03.587Z,29.65
2019-01-24T03:29:09.418Z,30.75
2019-01-24T03:31:15.015Z,30.35
2019-01-24T03:33:20.950Z,29.90
2019-01-24T03:35:28.106Z,29.07
2019-01-24T03:37:33.601Z,30.48
2019-01-24T03:39:39.074Z,30.77
2019-01-24T03:41:44.821Z,32.20
2019-01-24T03:43:52.141Z,30.30
2019-01-24T03:45:57.661Z,31.35
2019-01-24T03:48:03.325Z,29.67
2019-01-24T03:50:11.288Z,30.80
2019-01-24T03:52:16.809Z,28.92
2019-01-24T03:54:22.406Z,32.23
2019-01-24T03:56:28.175Z,32.33
2019-01-24T03:58:34.674Z,32.25
2019-01-24T04:00:40.761Z,31.95
2019-01-24T04:02:46.494Z,33.18
2019-01-24T04:04:52.006Z,32.08
2019-01-24T04:07:05.003Z,32.45
2019-01-24T04:09:11.003Z,30.72
2019-01-24T04:11:16.535Z,30.70
2019-01-24T04:13:25.191Z,31.23
2019-01-24T04:15:30.744Z,33.00
2019-01-24T04:17:36.373Z,35.52
2019-01-24T04:19:41.952Z,32.58
2019-01-24T04:21:47.846Z,31.57
2019-01-24T04:23:53.461Z,32.30
2019-01-24T04:26:00.285Z,33.00
2019-01-24T04:28:05.893Z,34.45
2019-01-24T04:30:14.271Z,32.65
2019-01-24T04:32:22.073Z,35.50
2019-01-24T04:34:28.027Z,34.65
2019-01-24T04:36:33.501Z,34.40
2019-01-24T04:38:47.373Z,34.58
2019-01-24T04:40:53.930Z,32.38
2019-01-24T04:42:59.507Z,30.50
2019-01-24T04:45:07.132Z,32.67
2019-01-24T04:47:12.731Z,33.58
2019-01-24T04:49:18.492Z,32.95
2019-01-24T04:51:25.622Z,31.77
2019-01-24T04:53:31.121Z,31.20
2019-01-24T04:55:36.885Z,33.00
2019-01-24T04:57:45.573Z,32.90
2019-01-24T04:59:51.018Z,35.55
2019-01-24T05:01:56.628Z,35.40
2019-01-24T05:04:04.486Z,32.80
2019-01-24T05:06:12.490Z,32.80
2019-01-24T05:08:17.971Z,33.75
2019-01-24T05:10:27.444Z,31.35
2019-01-24T05:12:33.491Z,32.33
2019-01-24T05:14:39.062Z,33.02
2019-01-24T05:16:44.656Z,33.67
2019-01-24T05:18:50.975Z,32.50
2019-01-24T05:20:56.473Z,33.65
2019-01-24T05:23:01.919Z,33.73
2019-01-24T05:25:09.860Z,34.65
2019-01-24T05:29:56.572Z,32.53
2019-01-24T05:32:02.301Z,32.50
2019-01-24T05:34:08.492Z,34.55
2019-01-24T05:36:14.215Z,30.02
2019-01-24T05:38:22.347Z,32.23
2019-01-24T05:40:28.053Z,29.15
2019-01-24T05:42:33.521Z,34.27
2019-01-24T05:44:45.265Z,34.85
2019-01-24T05:46:50.812Z,33.98
2019-01-24T05:48:56.293Z,32.88
2019-01-24T05:51:07.931Z,28.73
2019-01-24T05:53:13.408Z,32.73
2019-01-24T05:55:19.279Z,29.82
2019-01-24T05:57:26.681Z,30.68
2019-01-24T05:59:32.130Z,33.83
2019-01-24T06:01:38.417Z,30.60
2019-01-24T06:03:49.828Z,27.73
2019-01-24T06:05:56.049Z,31.33
2019-01-24T06:08:01.548Z,31.60
2019-01-24T06:10:11.048Z,31.10
2019-01-24T06:12:16.649Z,32.95
2019-01-24T06:14:22.173Z,33.75
2019-01-24T06:16:29.833Z,33.63
2019-01-24T06:18:35.382Z,33.13
2019-01-24T06:20:41.502Z,31.40
2019-01-24T06:22:53.199Z,34.70
2019-01-24T06:24:58.810Z,34.15
2019-01-24T06:27:04.315Z,33.73
2019-01-24T06:29:09.814Z,31.73
2019-01-24T06:31:15.314Z,33.78
2019-01-24T06:33:21.113Z,35.45
2019-01-24T06:35:26.701Z,33.85
2019-01-24T06:37:32.149Z,34.00
2019-01-24T06:39:39.413Z,36.10
2019-01-24T06:41:46.474Z,32.75
2019-01-24T06:43:54.313Z,36.70
2019-01-24T06:46:06.955Z,39.73
2019-01-24T06:48:12.479Z,37.33
2019-01-24T06:50:19.357Z,35.00
2019-01-24T06:52:24.822Z,37.75
2019-01-24T06:54:30.527Z,35.25
2019-01-24T06:56:36.066Z,36.05
2019-01-24T06:58:42.349Z,36.75
2019-01-24T07:00:49.774Z,37.73
2019-01-24T07:02:56.937Z,36.63
2019-01-24T07:05:02.486Z,33.88
2019-01-24T07:07:08.151Z,32.63
2019-01-24T07:09:19.845Z,35.23
2019-01-24T07:11:25.386Z,36.35
2019-01-24T07:13:30.842Z,37.58
2019-01-24T07:15:36.393Z,33.65
2019-01-24T07:17:41.918Z,34.80
2019-01-24T07:19:47.398Z,35.80
2019-01-24T07:21:55.241Z,32.83
2019-01-24T07:24:01.133Z,31.87
2019-01-24T07:26:06.741Z,36.55
2019-01-24T07:28:12.466Z,34.00
2019-01-24T07:30:19.989Z,32.03
2019-01-24T07:32:25.635Z,33.33
2019-01-24T07:34:38.984Z,33.05
2019-01-24T07:36:44.515Z,30.57
2019-01-24T07:38:50.818Z,28.65
2019-01-24T07:41:02.686Z,29.63
2019-01-24T07:43:08.269Z,32.30
2019-01-24T07:45:25.663Z,35.52
2019-01-24T07:47:31.928Z,30.32
2019-01-24T07:49:37.609Z,32.03
2019-01-24T07:51:45.802Z,32.03
2019-01-24T07:53:51.270Z,32.08
2019-01-24T07:55:56.937Z,31.23
2019-01-24T07:58:02.523Z,28.98
2019-01-24T08:00:11.974Z,32.35
2019-01-24T08:02:17.858Z,29.52
2019-01-24T08:04:26.958Z,29.10
2019-01-24T08:06:32.394Z,32.85
2019-01-24T08:08:40.003Z,32.33
2019-01-24T08:10:47.189Z,32.03
2019-01-24T08:12:52.699Z,29.32
2019-01-24T08:14:58.837Z,31.07
2019-01-24T08:17:04.418Z,32.10
2019-01-24T08:19:09.990Z,32.35
2019-01-24T08:21:16.013Z,32.93
2019-01-24T08:23:21.451Z,33.10
2019-01-24T08:25:27.444Z,32.58
2019-01-24T08:27:34.439Z,32.38
2019-01-24T08:29:40.070Z,32.10
2019-01-24T08:31:45.866Z,31.62
2019-01-24T08:33:51.770Z,33.38
2019-01-24T08:35:57.475Z,34.13
2019-01-24T08:38:02.952Z,37.03
2019-01-24T08:40:09.574Z,33.42
2019-01-24T08:42:15.085Z,34.80
2019-01-24T08:44:22.054Z,34.30
2019-01-24T08:46:27.529Z,35.48
2019-01-24T08:48:35.194Z,34.15
2019-01-24T08:50:42.214Z,32.33
2019-01-24T08:52:49.481Z,33.35
2019-01-24T08:54:54.938Z,34.88
2019-01-24T08:57:00.650Z,29.40
2019-01-24T08:59:06.330Z,27.55
2019-01-24T09:01:12.879Z,29.23
2019-01-24T09:03:18.698Z,28.55
2019-01-24T09:05:25.290Z,28.27
2019-01-24T09:07:30.880Z,27.27
2019-01-24T09:09:37.599Z,28.00
2019-01-24T09:11:47.113Z,27.55
2019-01-24T09:13:52.881Z,28.42
2019-01-24T09:15:58.416Z,28.00
2019-01-24T09:18:05.483Z,29.63
2019-01-24T09:20:13.010Z,33.30
2019-01-24T09:22:19.641Z,29.50
2019-01-24T09:24:25.545Z,29.60
2019-01-24T09:26:31.691Z,30.70
2019-01-24T09:30:58.415Z,28.55
2019-01-24T09:33:07.727Z,29.63
2019-01-24T09:35:13.766Z,30.97
2019-01-24T09:37:23.018Z,28.50
2019-01-24T09:39:28.441Z,28.75
2019-01-24T09:41:34.624Z,31.57
2019-01-24T09:43:40.226Z,29.52
2019-01-24T09:45:48.483Z,28.67
2019-01-24T09:47:55.615Z,28.05
2019-01-24T09:50:01.148Z,30.02
2019-01-24T09:52:06.762Z,30.10
2019-01-24T09:54:12.430Z,30.52
2019-01-24T09:56:18.081Z,32.10
2019-01-24T09:58:24.451Z,30.70
2019-01-24T10:00:32.649Z,29.52
2019-01-24T10:02:38.070Z,30.57
2019-01-24T10:04:44.592Z,31.10
2019-01-24T10:06:50.678Z,29.42
2019-01-24T10:08:56.364Z,28.45
2019-01-24T10:11:01.874Z,27.22
2019-01-24T10:13:07.475Z,28.00
2019-01-24T10:15:13.551Z,27.80
2019-01-24T10:17:19.049Z,30.20
2019-01-24T10:19:24.584Z,26.30
2019-01-24T10:21:30.160Z,25.65
2019-01-24T10:23:35.593Z,30.85
2019-01-24T10:25:41.317Z,30.75
2019-01-24T10:27:46.913Z,26.33
2019-01-24T10:29:52.401Z,25.20
2019-01-24T10:31:59.234Z,24.43
2019-01-24T10:34:07.690Z,24.65
2019-01-24T10:36:13.550Z,23.18
2019-01-24T10:38:19.017Z,23.02
2019-01-24T10:40:30.258Z,24.15
2019-01-24T10:42:36.613Z,25.45
2019-01-24T10:44:42.093Z,25.57
2019-01-24T10:46:49.754Z,17.45
2019-01-24T10:48:55.226Z,19.35
2019-01-24T10:51:00.835Z,18.92
2019-01-24T10:53:08.722Z,16.40
2019-01-24T10:55:16.909Z,18.73
2019-01-24T10:57:22.573Z,16.30
2019-01-24T10:59:30.891Z,18.62
2019-01-24T11:01:37.214Z,18.80
2019-01-24T11:03:42.757Z,20.23
2019-01-24T11:05:55.125Z,17.90
2019-01-24T11:08:00.653Z,16.48
2019-01-24T11:10:07.219Z,18.30
2019-01-24T11:12:12.757Z,18.98
2019-01-24T11:14:18.362Z,18.67
2019-01-24T11:16:23.845Z,20.08
2019-01-24T11:18:29.344Z,20.05
2019-01-24T11:20:34.764Z,21.10
2019-01-24T11:22:40.231Z,20.48
2019-01-24T11:24:45.695Z,20.25
2019-01-24T11:26:51.132Z,22.35
2019-01-24T11:28:58.373Z,25.65
2019-01-24T11:31:06.890Z,20.20
2019-01-24T11:38:07.239Z,22.95
2019-01-24T11:40:19.474Z,23.10
2019-01-24T11:42:35.170Z,22.02
2019-01-24T11:47:21.994Z,19.50
2019-01-24T11:49:39.808Z,24.70
2019-01-24T11:51:50.338Z,20.05
2019-01-24T11:53:57.778Z,20.43
2019-01-24T11:56:06.375Z,22.85
2019-01-24T11:58:12.829Z,21.68
2019-01-24T12:00:21.507Z,20.17
2019-01-24T12:02:39.678Z,20.43
2019-01-24T12:04:40.186Z,20.45
2019-01-24T12:06:46.640Z,19.62
2019-01-24T12:08:54.514Z,20.77
2019-01-24T12:11:00.429Z,18.82
2019-01-24T12:13:07.509Z,24.47
2019-01-24T12:15:16.261Z,22.58
2019-01-24T12:17:22.035Z,20.25
2019-01-24T12:19:27.841Z,23.30
2019-01-24T12:21:33.659Z,21.62
2019-01-24T12:23:39.467Z,19.45
2019-01-24T12:25:45.503Z,20.02
2019-01-24T12:27:53.753Z,21.07
2019-01-24T12:29:59.363Z,21.82
2019-01-24T12:32:05.610Z,18.92
2019-01-24T12:34:12.942Z,19.57
2019-01-24T12:36:19.492Z,19.82
2019-01-24T12:38:25.391Z,20.65
2019-01-24T12:40:31.139Z,18.15
2019-01-24T12:42:36.573Z,20.77
2019-01-24T12:44:44.538Z,20.23
2019-01-24T12:46:50.131Z,20.35
2019-01-24T12:48:55.952Z,20.00
2019-01-24T12:51:01.761Z,19.23
2019-01-24T12:53:08.129Z,21.33
2019-01-24T12:55:14.195Z,18.02
2019-01-24T12:57:21.956Z,18.57
2019-01-24T12:59:27.402Z,21.12
2019-01-24T13:01:33.481Z,18.85
2019-01-24T13:03:39.924Z,18.73
2019-01-24T13:05:45.858Z,23.60
2019-01-24T13:07:52.648Z,23.65
2019-01-24T13:09:58.407Z,22.13
2019-01-24T13:12:04.385Z,29.42
2019-01-24T13:14:12.895Z,29.30
2019-01-24T13:16:18.549Z,28.50
2019-01-24T13:18:24.569Z,27.20
2019-01-24T13:20:30.033Z,28.15
2019-01-24T13:22:37.816Z,28.45
2019-01-24T13:24:43.474Z,27.62
2019-01-24T13:26:49.651Z,27.20
2019-01-24T13:28:56.267Z,26.87
2019-01-24T13:31:01.684Z,28.30
2019-01-24T13:33:07.954Z,27.95
2019-01-24T13:35:13.482Z,29.18
2019-01-24T13:37:25.584Z,28.27
2019-01-24T13:39:26.554Z,28.83
2019-01-24T13:41:42.262Z,27.58
2019-01-24T13:43:42.682Z,28.07
2019-01-24T13:45:48.238Z,26.17
2019-01-24T13:47:54.193Z,28.02
2019-01-24T13:50:00.964Z,26.65
2019-01-24T13:52:06.858Z,26.93
2019-01-24T13:54:15.403Z,27.58
2019-01-24T13:56:21.318Z,26.87
2019-01-24T13:58:26.807Z,27.48
2019-01-24T14:00:34.301Z,28.55
2019-01-24T14:02:40.669Z,27.65
2019-01-24T14:04:50.011Z,29.20
2019-01-24T14:06:55.456Z,28.80
2019-01-24T14:09:01.057Z,28.02
2019-01-24T14:11:06.748Z,28.52
2019-01-24T14:13:18.207Z,29.90
2019-01-24T14:15:23.898Z,29.42
2019-01-24T14:17:30.087Z,26.60
2019-01-24T14:19:37.597Z,29.10
2019-01-24T14:21:43.263Z,30.00
2019-01-24T14:23:48.701Z,29.25
2019-01-24T14:25:54.869Z,29.15
2019-01-24T14:28:00.370Z,30.60
2019-01-24T14:30:08.186Z,28.00
2019-01-24T14:32:14.127Z,26.42
2019-01-24T14:34:20.026Z,27.80
2019-01-24T14:36:25.611Z,29.57
2019-01-24T14:38:34.538Z,27.77
2019-01-24T14:40:39.985Z,25.82
2019-01-24T14:42:49.139Z,26.60
2019-01-24T14:44:54.591Z,28.00
2019-01-24T14:47:00.154Z,25.15
2019-01-24T14:49:05.766Z,27.17
2019-01-24T14:51:17.493Z,24.25
2019-01-24T14:53:23.214Z,27.45
2019-01-24T14:57:40.149Z,26.23
2019-01-24T14:59:47.380Z,25.88
2019-01-24T15:01:53.033Z,25.72
2019-01-24T15:04:00.335Z,25.60
2019-01-24T15:06:05.874Z,25.40
2019-01-24T15:08:12.058Z,24.67
2019-01-24T15:12:34.378Z,25.80
2019-01-24T15:14:40.242Z,22.75
2019-01-24T15:16:45.789Z,23.67
2019-01-24T15:18:51.806Z,24.18
2019-01-24T15:21:00.498Z,26.65
2019-01-24T15:23:05.946Z,20.37
2019-01-24T15:25:14.053Z,22.58
2019-01-24T15:27:26.289Z,21.62
2019-01-24T15:29:32.464Z,23.45
2019-01-24T15:31:37.965Z,24.70
2019-01-24T15:33:49.102Z,24.55
2019-01-24T15:35:54.677Z,22.67
2019-01-24T15:38:00.178Z,20.43
2019-01-24T15:40:11.184Z,22.45
2019-01-24T15:42:16.628Z,21.02
2019-01-24T15:44:22.514Z,23.42
2019-01-24T15:46:28.137Z,21.40
2019-01-24T15:48:33.975Z,23.32
2019-01-24T15:50:39.437Z,23.40
2019-01-24T15:52:52.857Z,23.55
2019-01-24T15:54:58.628Z,21.82
2019-01-24T15:57:04.211Z,21.65
2019-01-24T15:59:09.665Z,23.07
2019-01-24T16:01:15.173Z,23.80
2019-01-24T16:03:20.598Z,22.55
2019-01-24T16:05:32.128Z,22.05
2019-01-24T16:07:37.723Z,23.20
2019-01-24T16:09:43.177Z,23.90
2019-01-24T16:11:48.838Z,25.45
2019-01-24T16:13:54.709Z,24.70
2019-01-24T16:16:00.529Z,21.62
2019-01-24T16:18:08.585Z,19.00
2019-01-24T16:20:18.186Z,21.73
2019-01-24T16:22:23.662Z,23.95
2019-01-24T16:24:30.057Z,24.18
2019-01-24T16:26:37.306Z,28.00
2019-01-24T16:28:42.977Z,27.27
2019-01-24T16:30:51.723Z,28.65
2019-01-24T16:32:57.421Z,26.50
2019-01-24T16:35:02.904Z,25.12
2019-01-24T16:37:09.859Z,25.45
2019-01-24T16:39:15.722Z,22.82
2019-01-24T16:41:21.387Z,24.45
2019-01-24T16:43:28.827Z,24.70
2019-01-24T16:45:34.335Z,27.10
2019-01-24T16:47:39.753Z,25.92
2019-01-24T16:49:45.792Z,27.17
2019-01-24T16:51:51.300Z,23.85
2019-01-24T16:53:56.714Z,19.67
2019-01-24T16:56:02.173Z,22.65
2019-01-24T16:58:08.369Z,24.25
2019-01-24T17:00:22.333Z,21.97
2019-01-24T17:02:33.799Z,22.75
2019-01-24T17:04:39.554Z,22.67
2019-01-24T17:06:48.046Z,18.75
2019-01-24T17:08:59.161Z,21.17
2019-01-24T17:11:07.038Z,22.02
2019-01-24T17:13:15.305Z,20.88
2019-01-24T17:15:28.172Z,19.35
2019-01-24T17:17:33.814Z,18.62
2019-01-24T17:19:40.246Z,18.55
2019-01-24T17:21:47.835Z,17.35
2019-01-24T17:23:53.600Z,15.45
2019-01-24T17:25:59.299Z,15.78
2019-01-24T17:28:11.775Z,15.10
2019-01-24T17:30:30.587Z,14.85
2019-01-24T17:32:37.573Z,16.48
2019-01-24T17:34:44.762Z,16.15
2019-01-24T17:36:50.398Z,16.17
2019-01-24T17:38:56.636Z,18.23
2019-01-24T17:41:03.492Z,17.77
2019-01-24T17:43:09.613Z,15.40
2019-01-24T17:45:15.329Z,15.75
2019-01-24T17:47:20.986Z,12.18
2019-01-24T17:49:26.514Z,12.43
2019-01-24T17:51:32.063Z,12.47
2019-01-24T17:53:37.760Z,12.43
2019-01-24T17:55:45.742Z,13.00
2019-01-24T17:57:51.639Z,8.35
2019-01-24T18:00:03.332Z,9.48
2019-01-24T18:02:09.582Z,10.60
2019-01-24T18:04:21.494Z,10.00
2019-01-24T18:06:29.321Z,9.20
2019-01-24T18:08:34.979Z,8.93
2019-01-24T18:10:43.961Z,5.35
2019-01-24T18:12:49.573Z,8.83
2019-01-24T18:14:55.242Z,7.60
2019-01-24T18:17:00.818Z,9.28
2019-01-24T18:19:08.917Z,7.72
2019-01-24T18:21:14.697Z,10.90
2019-01-24T18:23:20.402Z,8.95
2019-01-24T18:25:27.081Z,7.80
2019-01-24T18:27:32.719Z,9.65
2019-01-24T18:29:41.398Z,9.98
2019-01-24T18:31:46.511Z,9.25
2019-01-24T18:33:52.261Z,9.15
2019-01-24T18:35:57.701Z,8.95
2019-01-24T18:38:03.170Z,8.80
2019-01-24T18:40:10.266Z,9.20
2019-01-24T18:42:17.063Z,10.23
2019-01-24T18:52:36.489Z,9.00
2019-01-24T18:55:36.440Z,9.63
2019-01-24T18:57:42.489Z,9.70
2019-01-24T18:59:48.434Z,9.00
2019-01-24T19:01:54.161Z,12.30
2019-01-24T19:04:00.006Z,9.25
2019-01-24T19:06:05.567Z,8.40
2019-01-24T19:08:14.454Z,9.68
2019-01-24T19:10:20.074Z,6.92
2019-01-24T19:12:25.702Z,9.28
2019-01-24T19:14:31.394Z,7.45
2019-01-24T19:16:36.817Z,9.70
2019-01-24T19:18:42.785Z,9.18
2019-01-24T19:20:52.879Z,9.10
2019-01-24T19:22:58.376Z,7.72
2019-01-24T19:25:04.589Z,8.65
2019-01-24T19:27:10.290Z,9.90
2019-01-24T19:29:16.250Z,8.60
2019-01-24T19:31:21.840Z,8.23
2019-01-24T19:33:27.437Z,9.35
2019-01-24T19:35:33.075Z,7.80
2019-01-24T19:37:38.601Z,7.30
2019-01-24T19:39:46.017Z,7.78
2019-01-24T19:41:51.790Z,7.78
2019-01-24T19:43:57.674Z,8.15
2019-01-24T19:46:07.186Z,9.03
2019-01-24T19:48:13.384Z,8.53
2019-01-24T19:50:23.492Z,8.60
2019-01-24T19:52:30.025Z,7.97
2019-01-24T19:54:35.911Z,8.95
2019-01-24T19:56:42.040Z,9.15
2019-01-24T19:58:47.714Z,9.95
2019-01-24T20:00:54.362Z,9.08
2019-01-24T20:03:00.872Z,7.58
2019-01-24T20:05:08.994Z,7.60
2019-01-24T20:07:20.760Z,7.60
2019-01-24T20:09:36.250Z,8.23
2019-01-24T20:11:42.332Z,8.98
2019-01-24T20:13:50.005Z,9.73
2019-01-24T20:15:55.445Z,8.35
2019-01-24T20:18:00.914Z,7.75
2019-01-24T20:20:11.337Z,8.70
2019-01-24T20:22:34.045Z,7.87
2019-01-24T20:24:39.697Z,8.28
2019-01-24T20:26:54.137Z,8.23
2019-01-24T20:29:01.176Z,7.20
2019-01-24T20:31:09.288Z,9.20
2019-01-24T20:33:15.140Z,6.58
2019-01-24T20:35:24.445Z,9.70
2019-01-24T20:37:32.222Z,7.67
2019-01-24T20:39:42.082Z,8.25
2019-01-24T20:41:47.923Z,4.72
2019-01-24T20:43:54.241Z,8.45
2019-01-24T20:45:59.815Z,4.22
2019-01-24T20:48:05.792Z,7.67
2019-01-24T20:50:12.467Z,8.05
2019-01-24T20:52:18.342Z,9.50
2019-01-24T20:54:25.166Z,7.45
2019-01-24T20:56:31.424Z,6.53
2019-01-24T20:58:37.446Z,7.08
2019-01-24T21:00:48.821Z,9.60
2019-01-24T21:02:54.661Z,8.73
2019-01-24T21:05:03.251Z,9.20
2019-01-24T21:07:12.698Z,8.15
2019-01-24T21:09:18.165Z,9.50
2019-01-24T21:11:24.486Z,8.20
2019-01-24T21:13:30.201Z,7.75
2019-01-24T21:15:36.038Z,8.78
2019-01-24T21:17:41.571Z,8.38
2019-01-24T21:19:47.775Z,6.65
2019-01-24T21:21:53.406Z,8.10
2019-01-24T21:23:59.585Z,8.48
2019-01-24T21:26:05.041Z,8.50
2019-01-24T21:28:10.472Z,7.60
2019-01-24T21:30:21.522Z,8.90
2019-01-24T21:32:34.416Z,7.92
2019-01-24T21:34:40.205Z,7.97
2019-01-24T21:36:45.714Z,5.70
2019-01-24T21:38:51.153Z,7.72
2019-01-24T21:40:57.209Z,8.10
2019-01-24T21:43:02.637Z,9.20
2019-01-24T21:45:10.776Z,8.38
2019-01-24T21:47:18.173Z,7.67
2019-01-24T21:49:23.593Z,8.93
2019-01-24T21:51:29.350Z,7.80
2019-01-24T21:53:35.145Z,10.10
2019-01-24T21:55:42.035Z,8.15
2019-01-24T21:57:49.129Z,8.28
2019-01-24T21:59:54.662Z,7.85
2019-01-24T22:02:00.254Z,7.33
2019-01-24T22:04:05.932Z,8.60
2019-01-24T22:06:11.562Z,8.03
2019-01-24T22:08:17.257Z,8.20
2019-01-24T22:10:27.642Z,7.30
2019-01-24T22:12:35.266Z,7.22
2019-01-24T22:14:45.506Z,9.00
2019-01-24T22:16:58.841Z,8.70
2019-01-24T22:19:08.763Z,9.75
2019-01-24T22:21:21.669Z,7.30
2019-01-24T22:23:28.369Z,8.13
2019-01-24T22:25:43.830Z,6.80
2019-01-24T22:27:59.029Z,7.20
2019-01-24T22:30:21.895Z,7.15
2019-01-24T22:32:31.640Z,7.25
2019-01-24T22:34:37.714Z,7.75
2019-01-24T22:36:50.278Z,8.58
2019-01-24T22:38:56.277Z,6.83
2019-01-24T22:41:04.650Z,7.40
2019-01-24T22:43:17.745Z,9.05
2019-01-24T22:45:25.002Z,9.08
2019-01-24T22:47:35.416Z,7.62
2019-01-24T22:49:50.831Z,8.88
2019-01-24T22:52:03.169Z,8.35
2019-01-24T22:54:12.354Z,7.83
2019-01-24T22:56:21.922Z,7.40
2019-01-24T22:58:30.775Z,7.67
2019-01-24T23:01:05.199Z,8.08
2019-01-24T23:03:11.231Z,8.53
2019-01-24T23:05:17.860Z,7.83
2019-01-24T23:07:29.265Z,7.62
2019-01-24T23:09:44.343Z,7.12
2019-01-24T23:11:52.577Z,8.65
2019-01-24T23:13:58.891Z,7.72
2019-01-24T23:16:11.737Z,6.00
2019-01-24T23:18:24.702Z,8.55
2019-01-24T23:20:39.617Z,9.05
2019-01-24T23:26:11.391Z,7.03
2019-01-24T23:28:18.425Z,7.95
2019-01-24T23:30:28.670Z,8.00
2019-01-24T23:32:34.251Z,10.00
2019-01-24T23:34:41.098Z,8.45
2019-01-24T23:36:46.894Z,7.55
2019-01-24T23:39:00.364Z,8.48
2019-01-24T23:41:07.191Z,8.35
2019-01-24T23:46:24.099Z,6.42
2019-01-24T23:48:30.479Z,7.53
2019-01-24T23:50:36.690Z,8.60
2019-01-24T23:52:42.436Z,10.05
2019-01-24T23:54:48.348Z,8.40
2019-01-24T23:56:59.170Z,8.03
2019-01-24T23:59:06.913Z,8.15
